Terminal Aerodrome Forecast
Issued by NWS

Home | Current Version | Previous Version | Text Only | Print | Product List | Glossary On
Versions: 1 2 3 4 5 6 7 8 9 10 11 12 13 14 15 16 17 18 19 20 21 22 23 24 25 26 27 28 29 30 31 32 33 34 35 36 37 38 39 40
000
FTUS43 KLOT 201700
TAFDPA
TAF
KDPA 201739Z 2018/2118 33010G15KT P6SM SCT030
     FM201900 33011G16KT P6SM BKN035
     FM210100 35008KT P6SM SCT025 BKN035
     FM211000 36010KT P6SM SCT015 BKN025=

USA.gov is the U.S. government's official web portal to all federal, state and local government web resources and services.